sensor_id;sensor_type;location;lat;lon;timestamp;temperature;humidity
40630;DHT22;26329;40.388;-3.710;2023-06-10T00:09:38;21.10;68.40
40630;DHT22;26329;40.388;-3.710;2023-06-10T00:19:39;21.00;68.40
40630;DHT22;26329;40.388;-3.710;2023-06-10T00:29:41;20.90;68.30
40630;DHT22;26329;40.388;-3.710;2023-06-10T00:39:42;20.80;68.40
40630;DHT22;26329;40.388;-3.710;2023-06-10T00:49:43;20.80;68.60
40630;DHT22;26329;40.388;-3.710;2023-06-10T00:59:48;20.80;68.90
40630;DHT22;26329;40.388;-3.710;2023-06-10T01:20:14;20.70;69.60
40630;DHT22;26329;40.388;-3.710;2023-06-10T01:30:18;20.60;69.90
40630;DHT22;26329;40.388;-3.710;2023-06-10T01:40:21;20.60;70.00
40630;DHT22;26329;40.388;-3.710;2023-06-10T01:50:22;20.50;70.40
40630;DHT22;26329;40.388;-3.710;2023-06-10T02:00:23;20.50;70.60
40630;DHT22;26329;40.388;-3.710;2023-06-10T02:10:24;20.30;71.10
40630;DHT22;26329;40.388;-3.710;2023-06-10T02:20:25;20.30;71.00
40630;DHT22;26329;40.388;-3.710;2023-06-10T02:30:26;20.30;71.10
40630;DHT22;26329;40.388;-3.710;2023-06-10T02:40:27;20.30;71.40
40630;DHT22;26329;40.388;-3.710;2023-06-10T02:50:27;20.10;72.30
40630;DHT22;26329;40.388;-3.710;2023-06-10T03:00:28;20.20;72.30
40630;DHT22;26329;40.388;-3.710;2023-06-10T03:10:29;20.20;72.50
40630;DHT22;26329;40.388;-3.710;2023-06-10T03:20:30;20.10;72.90
40630;DHT22;26329;40.388;-3.710;2023-06-10T03:30:30;20.00;73.00
40630;DHT22;26329;40.388;-3.710;2023-06-10T03:40:31;20.00;73.50
40630;DHT22;26329;40.388;-3.710;2023-06-10T03:50:32;19.80;73.80
40630;DHT22;26329;40.388;-3.710;2023-06-10T04:00:33;19.90;73.60
40630;DHT22;26329;40.388;-3.710;2023-06-10T04:10:41;19.90;73.80
40630;DHT22;26329;40.388;-3.710;2023-06-10T04:20:42;19.80;74.10
40630;DHT22;26329;40.388;-3.710;2023-06-10T04:30:44;19.80;74.10
40630;DHT22;26329;40.388;-3.710;2023-06-10T04:40:46;19.70;74.30
40630;DHT22;26329;40.388;-3.710;2023-06-10T04:50:47;19.50;75.00
40630;DHT22;26329;40.388;-3.710;2023-06-10T05:00:47;19.60;74.90
40630;DHT22;26329;40.388;-3.710;2023-06-10T05:10:48;19.70;74.50
40630;DHT22;26329;40.388;-3.710;2023-06-10T05:20:49;19.70;74.50
40630;DHT22;26329;40.388;-3.710;2023-06-10T05:30:50;19.80;74.60
40630;DHT22;26329;40.388;-3.710;2023-06-10T05:40:51;19.90;74.30
40630;DHT22;26329;40.388;-3.710;2023-06-10T05:50:52;20.00;74.20
40630;DHT22;26329;40.388;-3.710;2023-06-10T06:00:52;20.10;73.70
40630;DHT22;26329;40.388;-3.710;2023-06-10T06:10:53;20.30;73.50
40630;DHT22;26329;40.388;-3.710;2023-06-10T06:20:54;20.30;73.30
40630;DHT22;26329;40.388;-3.710;2023-06-10T06:30:56;20.40;72.90
40630;DHT22;26329;40.388;-3.710;2023-06-10T06:40:56;20.50;72.60
40630;DHT22;26329;40.388;-3.710;2023-06-10T06:50:57;20.50;72.30
40630;DHT22;26329;40.388;-3.710;2023-06-10T07:00:58;20.60;72.40
40630;DHT22;26329;40.388;-3.710;2023-06-10T07:10:59;20.80;72.20
40630;DHT22;26329;40.388;-3.710;2023-06-10T07:21:00;20.80;71.20
40630;DHT22;26329;40.388;-3.710;2023-06-10T07:31:01;20.80;71.30
40630;DHT22;26329;40.388;-3.710;2023-06-10T07:41:02;21.10;71.00
40630;DHT22;26329;40.388;-3.710;2023-06-10T07:51:02;21.20;70.00
40630;DHT22;26329;40.388;-3.710;2023-06-10T08:01:03;21.20;69.30
40630;DHT22;26329;40.388;-3.710;2023-06-10T08:11:05;22.10;66.60
40630;DHT22;26329;40.388;-3.710;2023-06-10T08:21:05;22.20;66.20
40630;DHT22;26329;40.388;-3.710;2023-06-10T08:31:06;22.20;66.70
40630;DHT22;26329;40.388;-3.710;2023-06-10T08:41:07;23.10;63.30
40630;DHT22;26329;40.388;-3.710;2023-06-10T08:51:11;23.70;60.60
40630;DHT22;26329;40.388;-3.710;2023-06-10T09:01:12;24.00;60.00
40630;DHT22;26329;40.388;-3.710;2023-06-10T09:11:13;24.20;60.40
40630;DHT22;26329;40.388;-3.710;2023-06-10T09:21:14;24.80;57.10
40630;DHT22;26329;40.388;-3.710;2023-06-10T09:31:16;24.90;56.90
40630;DHT22;26329;40.388;-3.710;2023-06-10T09:41:18;25.20;55.40
40630;DHT22;26329;40.388;-3.710;2023-06-10T09:51:19;25.40;53.90
40630;DHT22;26329;40.388;-3.710;2023-06-10T10:01:20;25.10;57.50
40630;DHT22;26329;40.388;-3.710;2023-06-10T10:11:22;25.00;56.50
40630;DHT22;26329;40.388;-3.710;2023-06-10T10:21:25;25.30;54.60
40630;DHT22;26329;40.388;-3.710;2023-06-10T10:31:27;25.50;52.40
40630;DHT22;26329;40.388;-3.710;2023-06-10T10:41:31;25.00;52.00
40630;DHT22;26329;40.388;-3.710;2023-06-10T10:51:36;25.50;50.20
40630;DHT22;26329;40.388;-3.710;2023-06-10T11:01:43;25.70;48.90
40630;DHT22;26329;40.388;-3.710;2023-06-10T11:11:49;25.90;48.70
40630;DHT22;26329;40.388;-3.710;2023-06-10T11:22:00;25.90;47.70
40630;DHT22;26329;40.388;-3.710;2023-06-10T11:32:04;25.90;47.50
40630;DHT22;26329;40.388;-3.710;2023-06-10T11:42:06;25.90;48.20
40630;DHT22;26329;40.388;-3.710;2023-06-10T11:52:08;26.30;46.30
40630;DHT22;26329;40.388;-3.710;2023-06-10T12:02:17;26.30;47.10
40630;DHT22;26329;40.388;-3.710;2023-06-10T12:12:19;26.30;47.90
40630;DHT22;26329;40.388;-3.710;2023-06-10T12:22:21;26.50;46.50
40630;DHT22;26329;40.388;-3.710;2023-06-10T12:32:45;26.70;44.90
40630;DHT22;26329;40.388;-3.710;2023-06-10T12:42:46;26.60;45.10
40630;DHT22;26329;40.388;-3.710;2023-06-10T12:52:47;26.70;45.40
40630;DHT22;26329;40.388;-3.710;2023-06-10T13:02:48;27.10;46.20
40630;DHT22;26329;40.388;-3.710;2023-06-10T13:12:51;26.60;45.30
40630;DHT22;26329;40.388;-3.710;2023-06-10T13:22:52;26.30;43.20
40630;DHT22;26329;40.388;-3.710;2023-06-10T13:32:52;26.70;41.20
40630;DHT22;26329;40.388;-3.710;2023-06-10T13:42:53;27.20;40.80
40630;DHT22;26329;40.388;-3.710;2023-06-10T13:52:54;27.40;39.90
40630;DHT22;26329;40.388;-3.710;2023-06-10T14:02:55;27.40;39.10
40630;DHT22;26329;40.388;-3.710;2023-06-10T14:12:56;27.50;39.50
40630;DHT22;26329;40.388;-3.710;2023-06-10T14:22:57;27.60;38.40
40630;DHT22;26329;40.388;-3.710;2023-06-10T14:32:58;27.70;38.20
40630;DHT22;26329;40.388;-3.710;2023-06-10T14:42:59;27.90;37.00
40630;DHT22;26329;40.388;-3.710;2023-06-10T14:53:02;27.80;38.30
40630;DHT22;26329;40.388;-3.710;2023-06-10T15:03:02;27.90;37.10
40630;DHT22;26329;40.388;-3.710;2023-06-10T15:13:03;27.90;35.70
40630;DHT22;26329;40.388;-3.710;2023-06-10T15:23:04;28.20;37.20
40630;DHT22;26329;40.388;-3.710;2023-06-10T15:33:05;27.90;36.80
40630;DHT22;26329;40.388;-3.710;2023-06-10T15:43:06;27.70;38.10
40630;DHT22;26329;40.388;-3.710;2023-06-10T15:53:07;27.70;38.10
40630;DHT22;26329;40.388;-3.710;2023-06-10T16:03:08;27.60;37.70
40630;DHT22;26329;40.388;-3.710;2023-06-10T16:13:09;27.70;37.30
40630;DHT22;26329;40.388;-3.710;2023-06-10T16:23:09;27.60;37.30
40630;DHT22;26329;40.388;-3.710;2023-06-10T16:33:10;27.60;36.60
40630;DHT22;26329;40.388;-3.710;2023-06-10T16:43:11;27.40;37.30
40630;DHT22;26329;40.388;-3.710;2023-06-10T16:53:12;27.50;36.60
40630;DHT22;26329;40.388;-3.710;2023-06-10T17:03:13;27.60;36.40
40630;DHT22;26329;40.388;-3.710;2023-06-10T17:13:14;27.50;36.00
40630;DHT22;26329;40.388;-3.710;2023-06-10T17:23:15;27.50;37.50
40630;DHT22;26329;40.388;-3.710;2023-06-10T17:33:16;27.30;37.30
40630;DHT22;26329;40.388;-3.710;2023-06-10T17:43:17;27.20;37.00
40630;DHT22;26329;40.388;-3.710;2023-06-10T17:53:18;27.00;37.60
40630;DHT22;26329;40.388;-3.710;2023-06-10T18:03:18;27.00;37.10
40630;DHT22;26329;40.388;-3.710;2023-06-10T18:13:26;26.90;36.90
40630;DHT22;26329;40.388;-3.710;2023-06-10T18:23:26;26.80;37.20
40630;DHT22;26329;40.388;-3.710;2023-06-10T18:33:27;26.70;38.10
40630;DHT22;26329;40.388;-3.710;2023-06-10T18:43:28;26.50;38.20
40630;DHT22;26329;40.388;-3.710;2023-06-10T18:53:29;26.40;38.90
40630;DHT22;26329;40.388;-3.710;2023-06-10T19:03:29;26.20;39.40
40630;DHT22;26329;40.388;-3.710;2023-06-10T19:13:31;26.00;40.40
40630;DHT22;26329;40.388;-3.710;2023-06-10T19:23:32;25.80;41.60
40630;DHT22;26329;40.388;-3.710;2023-06-10T19:33:33;25.70;42.20
40630;DHT22;26329;40.388;-3.710;2023-06-10T19:43:34;25.50;41.70
40630;DHT22;26329;40.388;-3.710;2023-06-10T19:53:35;25.40;41.80
40630;DHT22;26329;40.388;-3.710;2023-06-10T20:03:35;25.20;42.30
40630;DHT22;26329;40.388;-3.710;2023-06-10T20:13:36;25.20;43.20
40630;DHT22;26329;40.388;-3.710;2023-06-10T20:23:37;24.90;44.30
40630;DHT22;26329;40.388;-3.710;2023-06-10T20:33:38;24.70;45.60
40630;DHT22;26329;40.388;-3.710;2023-06-10T20:43:38;24.50;46.30
40630;DHT22;26329;40.388;-3.710;2023-06-10T20:53:39;24.30;47.00
40630;DHT22;26329;40.388;-3.710;2023-06-10T21:03:40;24.20;47.30
40630;DHT22;26329;40.388;-3.710;2023-06-10T21:13:41;24.00;47.50
40630;DHT22;26329;40.388;-3.710;2023-06-10T21:23:42;23.80;47.50
40630;DHT22;26329;40.388;-3.710;2023-06-10T21:33:43;23.70;47.60
40630;DHT22;26329;40.388;-3.710;2023-06-10T21:43:43;23.60;47.30
40630;DHT22;26329;40.388;-3.710;2023-06-10T21:53:44;23.50;47.30
40630;DHT22;26329;40.388;-3.710;2023-06-10T22:03:45;23.50;47.60
40630;DHT22;26329;40.388;-3.710;2023-06-10T22:13:46;23.40;47.90
40630;DHT22;26329;40.388;-3.710;2023-06-10T22:23:46;23.30;48.00
40630;DHT22;26329;40.388;-3.710;2023-06-10T22:33:47;23.20;47.70
40630;DHT22;26329;40.388;-3.710;2023-06-10T22:43:48;23.20;49.50
40630;DHT22;26329;40.388;-3.710;2023-06-10T22:53:49;22.90;50.10
40630;DHT22;26329;40.388;-3.710;2023-06-10T23:03:50;22.80;50.20
40630;DHT22;26329;40.388;-3.710;2023-06-10T23:13:51;22.80;50.40
40630;DHT22;26329;40.388;-3.710;2023-06-10T23:23:52;22.70;50.90
40630;DHT22;26329;40.388;-3.710;2023-06-10T23:33:53;22.70;51.50
40630;DHT22;26329;40.388;-3.710;2023-06-10T23:43:55;22.50;52.20
40630;DHT22;26329;40.388;-3.710;2023-06-10T23:53:56;22.60;52.40
